sensor_id;sensor_type;location;lat;lon;timestamp;pressure;altitude;pressure_sealevel;temperature;humidity
67099;BME280;54288;53.046;5.668;2024-01-25T13:02:35;102805.38;;;7.65;100.00
67099;BME280;54288;53.046;5.668;2024-01-25T13:11:00;102774.72;;;7.55;100.00
67099;BME280;54288;53.046;5.668;2024-01-25T13:19:02;102770.63;;;7.66;100.00
67099;BME280;54288;53.046;5.668;2024-01-25T13:21:28;102780.34;;;7.73;100.00
67099;BME280;54288;53.046;5.668;2024-01-25T13:23:53;102788.38;;;7.84;100.00
67099;BME280;54288;53.046;5.668;2024-01-25T13:26:19;102771.88;;;7.83;100.00
67099;BME280;54288;53.046;5.668;2024-01-25T13:53:40;102768.00;;;7.65;100.00
67099;BME280;54288;53.046;5.668;2024-01-25T13:56:06;102742.38;;;7.47;100.00
67099;BME280;54288;53.046;5.668;2024-01-25T13:58:32;102733.53;;;7.39;100.00
67099;BME280;54288;53.046;5.668;2024-01-25T14:00:58;102743.13;;;7.42;100.00
67099;BME280;54288;53.046;5.668;2024-01-25T14:03:24;102737.03;;;7.41;100.00
67099;BME280;54288;53.046;5.668;2024-01-25T14:56:31;102656.19;;;7.38;100.00
67099;BME280;54288;53.046;5.668;2024-01-25T20:13:08;102394.78;;;7.42;100.00
67099;BME280;54288;53.046;5.668;2024-01-25T20:15:33;102384.38;;;7.42;100.00
67099;BME280;54288;53.046;5.668;2024-01-25T20:17:59;102382.75;;;7.50;100.00
67099;BME280;54288;53.046;5.668;2024-01-25T20:20:28;102379.22;;;7.47;100.00
67099;BME280;54288;53.046;5.668;2024-01-25T20:22:53;102382.88;;;7.58;100.00
67099;BME280;54288;53.046;5.668;2024-01-25T20:25:19;102383.81;;;7.61;100.00
67099;BME280;54288;53.046;5.668;2024-01-25T20:27:45;102394.25;;;7.63;100.00
67099;BME280;54288;53.046;5.668;2024-01-25T20:30:13;102390.72;;;7.61;100.00
67099;BME280;54288;53.046;5.668;2024-01-25T20:32:39;102410.00;;;7.70;100.00
67099;BME280;54288;53.046;5.668;2024-01-25T20:35:05;102382.13;;;7.65;100.00
67099;BME280;54288;53.046;5.668;2024-01-25T20:37:31;102397.94;;;7.77;100.00
67099;BME280;54288;53.046;5.668;2024-01-25T20:39:57;102388.41;;;7.79;100.00
67099;BME280;54288;53.046;5.668;2024-01-25T20:42:22;102391.00;;;7.76;100.00
67099;BME280;54288;53.046;5.668;2024-01-25T20:44:48;102399.72;;;7.79;100.00
67099;BME280;54288;53.046;5.668;2024-01-25T20:47:14;102387.50;;;7.74;100.00
67099;BME280;54288;53.046;5.668;2024-01-25T20:49:42;102387.59;;;7.80;100.00
67099;BME280;54288;53.046;5.668;2024-01-25T20:52:13;102391.94;;;7.81;100.00
67099;BME280;54288;53.046;5.668;2024-01-25T20:54:38;102385.88;;;7.82;100.00
67099;BME280;54288;53.046;5.668;2024-01-25T20:57:04;102376.28;;;7.81;100.00
67099;BME280;54288;53.046;5.668;2024-01-25T20:59:30;102365.81;;;7.79;100.00
67099;BME280;54288;53.046;5.668;2024-01-25T21:01:57;102380.66;;;7.82;100.00
67099;BME280;54288;53.046;5.668;2024-01-25T21:04:24;102361.47;;;7.78;100.00
67099;BME280;54288;53.046;5.668;2024-01-25T21:06:50;102363.28;;;7.84;100.00
67099;BME280;54288;53.046;5.668;2024-01-25T21:09:16;102372.97;;;7.91;100.00
67099;BME280;54288;53.046;5.668;2024-01-25T21:11:42;102369.50;;;7.92;100.00
67099;BME280;54288;53.046;5.668;2024-01-25T21:14:08;102362.41;;;7.82;100.00
67099;BME280;54288;53.046;5.668;2024-01-25T21:16:33;102350.28;;;7.85;100.00
67099;BME280;54288;53.046;5.668;2024-01-25T21:19:00;102354.66;;;7.88;100.00
67099;BME280;54288;53.046;5.668;2024-01-25T21:21:26;102347.66;;;7.85;100.00
67099;BME280;54288;53.046;5.668;2024-01-25T21:23:52;102343.31;;;7.84;100.00
67099;BME280;54288;53.046;5.668;2024-01-25T21:26:18;102344.16;;;7.85;100.00
67099;BME280;54288;53.046;5.668;2024-01-25T21:28:43;102335.44;;;7.81;100.00
67099;BME280;54288;53.046;5.668;2024-01-25T21:31:11;102347.72;;;7.90;100.00
67099;BME280;54288;53.046;5.668;2024-01-25T21:33:37;102328.47;;;7.80;100.00
67099;BME280;54288;53.046;5.668;2024-01-25T21:36:03;102316.22;;;7.76;100.00
67099;BME280;54288;53.046;5.668;2024-01-25T21:38:29;102338.94;;;7.85;100.00
67099;BME280;54288;53.046;5.668;2024-01-25T21:40:55;102318.94;;;7.82;100.00
67099;BME280;54288;53.046;5.668;2024-01-25T21:43:20;102331.13;;;7.83;100.00
67099;BME280;54288;53.046;5.668;2024-01-25T21:45:48;102318.88;;;7.79;100.00
67099;BME280;54288;53.046;5.668;2024-01-25T21:48:14;102331.16;;;7.86;100.00
67099;BME280;54288;53.046;5.668;2024-01-25T21:50:43;102326.78;;;7.84;100.00
67099;BME280;54288;53.046;5.668;2024-01-25T21:53:16;102320.69;;;7.83;100.00
67099;BME280;54288;53.046;5.668;2024-01-25T21:55:41;102327.66;;;7.84;100.00
67099;BME280;54288;53.046;5.668;2024-01-25T21:58:27;102324.16;;;7.82;100.00
67099;BME280;54288;53.046;5.668;2024-01-25T22:01:13;102318.06;;;7.82;100.00
67099;BME280;54288;53.046;5.668;2024-01-25T22:03:39;102313.75;;;7.85;100.00
